createdAt,value
2019-01-14T00:02:04.698Z,7.40
2019-01-14T00:04:35.050Z,7.50
2019-01-14T00:07:04.772Z,7.50
2019-01-14T00:09:34.496Z,7.50
2019-01-14T00:12:04.166Z,7.50
2019-01-14T00:14:34.179Z,7.50
2019-01-14T00:17:03.914Z,7.50
2019-01-14T00:19:33.563Z,7.50
2019-01-14T00:22:03.799Z,7.50
2019-01-14T00:24:33.753Z,7.40
2019-01-14T00:27:04.046Z,7.30
2019-01-14T00:29:34.015Z,7.30
2019-01-14T00:32:04.100Z,7.30
2019-01-14T00:34:34.239Z,7.20
2019-01-14T00:37:04.615Z,7.20
2019-01-14T00:39:34.988Z,7.30
2019-01-14T00:42:04.843Z,7.40
2019-01-14T00:44:34.272Z,7.40
2019-01-14T00:47:04.855Z,7.40
2019-01-14T00:49:35.127Z,7.30
2019-01-14T00:52:04.551Z,7.40
2019-01-14T00:54:34.855Z,7.40
2019-01-14T00:57:04.817Z,7.30
2019-01-14T00:59:34.582Z,7.30
2019-01-14T01:02:04.956Z,7.20
2019-01-14T01:04:35.281Z,7.20
2019-01-14T01:07:05.319Z,7.20
2019-01-14T01:09:34.980Z,7.10
2019-01-14T01:12:04.759Z,7.00
2019-01-14T01:14:34.920Z,7.00
2019-01-14T01:17:05.296Z,7.00
2019-01-14T01:19:34.954Z,6.90
2019-01-14T01:22:04.982Z,7.00
2019-01-14T01:24:34.960Z,7.00
2019-01-14T01:27:04.906Z,7.00
2019-01-14T01:29:35.243Z,7.00
2019-01-14T01:32:05.492Z,7.00
2019-01-14T01:34:35.167Z,7.00
2019-01-14T01:37:05.119Z,6.90
2019-01-14T01:39:34.781Z,6.90
2019-01-14T01:42:04.797Z,6.90
2019-01-14T01:44:34.850Z,6.80
2019-01-14T01:47:04.779Z,6.70
2019-01-14T01:49:35.087Z,6.70
2019-01-14T01:52:05.344Z,6.50
2019-01-14T01:54:35.012Z,6.50
2019-01-14T01:57:05.334Z,6.70
2019-01-14T01:59:35.128Z,6.60
2019-01-14T02:02:05.517Z,6.70
2019-01-14T02:04:35.184Z,6.60
2019-01-14T02:07:04.554Z,6.60
2019-01-14T02:09:34.585Z,6.60
2019-01-14T02:12:04.630Z,6.60
2019-01-14T02:14:35.191Z,6.50
2019-01-14T02:17:04.901Z,6.60
2019-01-14T02:19:34.840Z,6.60
2019-01-14T02:22:04.677Z,6.60
2019-01-14T02:24:34.679Z,6.40
2019-01-14T02:27:04.379Z,6.40
2019-01-14T02:29:33.491Z,6.40
2019-01-14T02:32:03.468Z,6.50
2019-01-14T02:34:33.439Z,6.40
2019-01-14T02:37:02.793Z,6.40
2019-01-14T02:39:32.545Z,6.40
2019-01-14T02:42:02.503Z,6.30
2019-01-14T02:44:32.159Z,6.30
2019-01-14T02:47:01.827Z,6.30
2019-01-14T02:49:31.568Z,6.30
2019-01-14T02:52:01.192Z,6.30
2019-01-14T02:54:31.565Z,6.30
2019-01-14T02:57:01.907Z,6.50
2019-01-14T02:59:31.868Z,6.40
2019-01-14T03:02:02.221Z,6.40
2019-01-14T03:04:32.200Z,6.40
2019-01-14T03:07:02.604Z,6.40
2019-01-14T03:09:32.878Z,6.50
2019-01-14T03:12:02.681Z,6.50
2019-01-14T03:14:32.347Z,6.50
2019-01-14T03:17:02.632Z,6.50
2019-01-14T03:19:32.660Z,6.50
2019-01-14T03:22:02.634Z,6.50
2019-01-14T03:24:33.051Z,6.50
2019-01-14T03:27:03.099Z,6.50
2019-01-14T03:29:32.794Z,6.50
2019-01-14T03:32:02.867Z,6.50
2019-01-14T03:34:33.003Z,6.40
2019-01-14T03:37:05.530Z,6.40
2019-01-14T03:39:34.965Z,6.40
2019-01-14T03:42:05.199Z,6.40
2019-01-14T03:44:35.494Z,6.40
2019-01-14T03:47:05.820Z,6.40
2019-01-14T03:49:35.784Z,6.30
2019-01-14T03:52:05.783Z,6.30
2019-01-14T03:54:35.776Z,6.20
2019-01-14T03:57:06.959Z,6.30
2019-01-14T03:59:37.523Z,6.30
2019-01-14T04:02:07.524Z,6.20
2019-01-14T04:04:37.538Z,6.10
2019-01-14T04:07:13.628Z,6.10
2019-01-14T04:09:38.634Z,6.10
2019-01-14T04:12:08.591Z,6.10
2019-01-14T04:14:38.562Z,6.00
2019-01-14T04:17:08.922Z,6.00
2019-01-14T04:19:38.695Z,6.10
2019-01-14T04:22:09.017Z,6.10
2019-01-14T04:24:39.094Z,6.10
2019-01-14T04:27:09.527Z,6.10
2019-01-14T04:29:39.479Z,6.10
2019-01-14T04:32:09.530Z,6.10
2019-01-14T04:34:39.799Z,6.20
2019-01-14T04:37:09.519Z,6.20
2019-01-14T04:39:39.466Z,6.20
2019-01-14T04:42:09.510Z,6.20
2019-01-14T04:44:39.499Z,6.30
2019-01-14T04:47:09.768Z,6.30
2019-01-14T04:49:39.432Z,6.40
2019-01-14T04:52:09.171Z,6.40
2019-01-14T04:54:39.491Z,6.50
2019-01-14T04:57:09.511Z,6.60
2019-01-14T04:59:39.529Z,6.60
2019-01-14T05:02:09.586Z,6.50
2019-01-14T05:04:39.343Z,6.60
2019-01-14T05:07:08.763Z,6.50
2019-01-14T05:09:39.035Z,6.50
2019-01-14T05:12:08.458Z,6.50
2019-01-14T05:14:38.440Z,6.50
2019-01-14T05:17:08.446Z,6.60
2019-01-14T05:19:38.185Z,6.60
2019-01-14T05:22:08.247Z,6.60
2019-01-14T05:24:37.962Z,6.50
2019-01-14T05:27:07.987Z,6.50
2019-01-14T05:29:37.952Z,6.40
2019-01-14T05:32:08.266Z,6.40
2019-01-14T05:34:37.915Z,6.40
2019-01-14T05:37:07.276Z,6.40
2019-01-14T05:39:36.959Z,6.30
2019-01-14T05:42:06.608Z,6.20
2019-01-14T05:44:36.296Z,6.20
2019-01-14T05:47:06.263Z,6.20
2019-01-14T05:49:36.009Z,6.10
2019-01-14T05:52:06.035Z,6.10
2019-01-14T05:54:36.308Z,6.10
2019-01-14T05:57:06.354Z,6.10
2019-01-14T05:59:36.701Z,6.00
2019-01-14T06:02:06.668Z,6.00
2019-01-14T06:04:37.082Z,6.00
2019-01-14T06:07:06.514Z,6.00
2019-01-14T06:09:36.467Z,6.00
2019-01-14T06:12:06.756Z,6.00
2019-01-14T06:14:36.703Z,6.00
2019-01-14T06:17:06.054Z,6.00
2019-01-14T06:19:36.912Z,6.00
2019-01-14T06:22:06.895Z,6.00
2019-01-14T06:24:37.247Z,6.00
2019-01-14T06:27:06.962Z,6.00
2019-01-14T06:29:37.268Z,6.00
2019-01-14T06:32:07.635Z,6.00
2019-01-14T06:34:37.635Z,6.00
2019-01-14T06:37:08.680Z,5.90
2019-01-14T06:39:38.703Z,6.00
2019-01-14T06:42:09.019Z,6.00
2019-01-14T06:44:39.031Z,6.00
2019-01-14T06:47:09.109Z,5.90
2019-01-14T06:49:39.105Z,5.80
2019-01-14T06:52:09.087Z,5.90
2019-01-14T06:54:38.774Z,5.90
2019-01-14T06:57:07.856Z,5.80
2019-01-14T06:59:38.318Z,5.80
2019-01-14T07:02:08.178Z,5.90
2019-01-14T07:04:38.484Z,5.90
2019-01-14T07:07:08.492Z,5.80
2019-01-14T07:09:38.903Z,5.80
2019-01-14T07:12:08.547Z,5.90
2019-01-14T07:14:38.287Z,5.80
2019-01-14T07:17:08.002Z,5.70
2019-01-14T07:19:37.952Z,5.70
2019-01-14T07:22:08.046Z,5.80
2019-01-14T07:24:38.377Z,5.70
2019-01-14T07:27:08.684Z,5.70
2019-01-14T07:29:38.748Z,5.70
2019-01-14T07:32:08.766Z,5.80
2019-01-14T07:34:38.471Z,5.90
2019-01-14T07:37:07.910Z,5.90
2019-01-14T07:39:37.583Z,5.90
2019-01-14T07:42:07.606Z,5.90
2019-01-14T07:44:37.606Z,6.00
2019-01-14T07:47:07.367Z,6.00
2019-01-14T07:49:37.083Z,6.10
2019-01-14T07:52:06.857Z,6.10
2019-01-14T07:54:37.251Z,6.20
2019-01-14T07:57:07.253Z,6.30
2019-01-14T07:59:36.666Z,6.20
2019-01-14T08:02:06.796Z,6.20
2019-01-14T08:04:36.895Z,6.20
2019-01-14T08:07:07.212Z,6.20
2019-01-14T08:09:36.669Z,6.20
2019-01-14T08:12:06.775Z,6.30
2019-01-14T08:14:36.844Z,6.20
2019-01-14T08:17:07.204Z,6.20
2019-01-14T08:19:36.911Z,6.30
2019-01-14T08:22:06.889Z,6.30
2019-01-14T08:24:37.232Z,6.30
2019-01-14T08:27:07.591Z,6.40
2019-01-14T08:29:37.652Z,6.40
2019-01-14T08:32:07.404Z,6.40
2019-01-14T08:34:37.453Z,6.50
2019-01-14T08:37:08.459Z,6.40
2019-01-14T08:39:38.477Z,6.60
2019-01-14T08:42:09.723Z,6.70
2019-01-14T08:44:41.528Z,6.70
2019-01-14T08:47:11.623Z,6.60
2019-01-14T08:49:41.911Z,6.70
2019-01-14T08:52:11.879Z,6.60
2019-01-14T08:54:41.896Z,6.70
2019-01-14T08:57:11.618Z,6.70
2019-01-14T08:59:41.895Z,6.80
2019-01-14T09:02:11.603Z,6.70
2019-01-14T09:04:41.607Z,6.70
2019-01-14T09:07:11.370Z,6.80
2019-01-14T09:09:41.077Z,6.70
2019-01-14T09:12:11.057Z,6.70
2019-01-14T09:14:41.389Z,6.80
2019-01-14T09:17:11.712Z,6.70
2019-01-14T09:19:41.965Z,6.70
2019-01-14T09:22:12.064Z,6.70
2019-01-14T09:24:41.745Z,6.60
2019-01-14T09:27:11.498Z,6.50
2019-01-14T09:29:41.470Z,6.60
2019-01-14T09:32:11.898Z,6.60
2019-01-14T09:34:42.303Z,6.50
2019-01-14T09:37:11.721Z,6.60
2019-01-14T09:39:41.704Z,6.60
2019-01-14T09:42:12.021Z,6.70
2019-01-14T09:44:41.802Z,6.70
2019-01-14T09:47:12.308Z,6.90
2019-01-14T09:49:45.676Z,6.80
2019-01-14T09:52:14.445Z,6.90
2019-01-14T09:54:44.149Z,6.90
2019-01-14T09:57:14.476Z,6.90
2019-01-14T09:59:44.444Z,7.00
2019-01-14T10:02:14.151Z,6.90
2019-01-14T10:04:44.190Z,6.90
2019-01-14T10:07:14.280Z,6.90
2019-01-14T10:09:44.000Z,7.00
2019-01-14T10:12:13.979Z,7.10
2019-01-14T10:14:44.073Z,7.10
2019-01-14T10:17:15.103Z,7.10
2019-01-14T10:19:44.792Z,7.20
2019-01-14T10:22:14.768Z,7.20
2019-01-14T10:24:44.481Z,7.40
2019-01-14T10:27:14.599Z,7.50
2019-01-14T10:29:44.272Z,7.50
2019-01-14T10:32:13.459Z,7.60
2019-01-14T10:34:43.145Z,7.50
2019-01-14T10:37:12.847Z,7.50
2019-01-14T10:39:42.363Z,7.40
2019-01-14T10:42:12.016Z,7.40
2019-01-14T10:44:42.328Z,7.30
2019-01-14T10:47:12.037Z,7.30
2019-01-14T10:49:41.801Z,7.50
2019-01-14T10:52:12.158Z,7.40
2019-01-14T10:54:42.168Z,7.40
2019-01-14T10:57:11.898Z,7.50
2019-01-14T10:59:41.986Z,7.70
2019-01-14T11:02:12.098Z,7.70
2019-01-14T11:04:42.198Z,7.70
2019-01-14T11:07:12.519Z,7.50
2019-01-14T11:09:44.663Z,7.50
2019-01-14T11:12:14.270Z,7.60
2019-01-14T11:14:44.348Z,7.80
2019-01-14T11:17:14.119Z,7.90
2019-01-14T11:19:44.411Z,7.80
2019-01-14T11:22:14.691Z,7.90
2019-01-14T11:24:51.500Z,8.20
2019-01-14T11:27:21.677Z,8.20
2019-01-14T11:29:54.919Z,8.00
2019-01-14T11:32:25.112Z,8.00
2019-01-14T11:34:54.575Z,7.90
2019-01-14T11:37:24.364Z,7.90
2019-01-14T11:39:54.425Z,8.00
2019-01-14T11:42:24.728Z,8.10
2019-01-14T11:44:54.807Z,8.10
2019-01-14T11:47:24.603Z,8.10
2019-01-14T11:49:54.272Z,8.10
2019-01-14T11:52:24.265Z,8.00
2019-01-14T11:54:54.214Z,8.10
2019-01-14T11:57:24.466Z,8.20
2019-01-14T11:59:55.390Z,8.10
2019-01-14T12:02:24.876Z,8.60
2019-01-14T12:04:54.915Z,8.80
2019-01-14T12:07:24.307Z,8.60
2019-01-14T12:09:54.260Z,9.00
2019-01-14T12:12:24.262Z,9.20
2019-01-14T12:14:54.362Z,9.00
2019-01-14T12:17:24.070Z,8.80
2019-01-14T12:19:54.092Z,8.60
2019-01-14T12:22:24.363Z,8.50
2019-01-14T12:24:54.710Z,8.40
2019-01-14T12:27:24.866Z,8.40
2019-01-14T12:29:55.243Z,8.20
2019-01-14T12:32:25.248Z,7.90
2019-01-14T12:34:55.205Z,7.90
2019-01-14T12:37:25.472Z,7.80
2019-01-14T12:39:55.632Z,7.70
2019-01-14T12:42:25.294Z,7.70
2019-01-14T12:44:54.414Z,7.70
2019-01-14T12:47:24.443Z,6.90
2019-01-14T12:49:54.758Z,5.80
2019-01-14T12:52:24.459Z,4.50
2019-01-14T12:54:54.486Z,4.10
2019-01-14T12:57:24.559Z,3.60
2019-01-14T12:59:54.568Z,3.30
2019-01-14T13:02:24.642Z,3.20
2019-01-14T13:04:54.659Z,3.10
2019-01-14T13:07:24.817Z,2.90
2019-01-14T13:09:55.199Z,2.90
2019-01-14T13:12:25.451Z,2.80
2019-01-14T13:14:55.447Z,2.70
2019-01-14T13:17:25.195Z,2.70
2019-01-14T13:19:55.200Z,2.70
2019-01-14T13:22:25.520Z,2.80
2019-01-14T13:24:55.513Z,2.80
2019-01-14T13:27:25.664Z,2.90
2019-01-14T13:29:55.455Z,3.00
2019-01-14T13:32:25.121Z,3.10
2019-01-14T13:34:55.124Z,3.20
2019-01-14T13:37:25.436Z,3.30
2019-01-14T13:39:55.147Z,3.40
2019-01-14T13:42:24.590Z,3.50
2019-01-14T13:44:54.360Z,3.60
2019-01-14T13:47:24.359Z,3.80
2019-01-14T13:49:54.339Z,3.90
2019-01-14T13:52:24.116Z,4.00
2019-01-14T13:54:54.232Z,4.00
2019-01-14T13:57:23.871Z,3.90
2019-01-14T13:59:54.309Z,4.00
2019-01-14T14:02:24.043Z,4.00
2019-01-14T14:04:53.525Z,4.00
2019-01-14T14:07:23.187Z,4.10
2019-01-14T14:09:52.596Z,4.20
2019-01-14T14:12:22.665Z,4.20
2019-01-14T14:14:53.019Z,4.30
2019-01-14T14:17:23.036Z,4.60
2019-01-14T14:19:53.106Z,4.60
2019-01-14T14:22:23.516Z,4.70
2019-01-14T14:24:53.236Z,4.70
2019-01-14T14:27:23.053Z,4.60
2019-01-14T14:29:53.032Z,4.70
2019-01-14T14:32:23.091Z,4.70
2019-01-14T14:34:52.212Z,4.80
2019-01-14T14:37:22.178Z,4.80
2019-01-14T14:39:52.256Z,4.80
2019-01-14T14:42:21.604Z,5.00
2019-01-14T14:44:51.394Z,5.10
2019-01-14T14:47:21.459Z,5.10
2019-01-14T14:49:51.784Z,5.20
2019-01-14T14:52:22.068Z,5.20
2019-01-14T14:54:52.391Z,5.30
2019-01-14T14:57:22.699Z,5.20
2019-01-14T14:59:52.404Z,5.20
2019-01-14T15:02:22.481Z,5.30
2019-01-14T15:04:51.968Z,5.30
2019-01-14T15:07:21.979Z,5.30
2019-01-14T15:09:55.847Z,5.30
2019-01-14T15:12:24.090Z,5.20
2019-01-14T15:14:54.386Z,5.20
2019-01-14T15:17:24.467Z,5.10
2019-01-14T15:19:54.446Z,5.00
2019-01-14T15:22:23.900Z,5.00
2019-01-14T15:24:54.266Z,4.90
2019-01-14T15:27:23.726Z,5.00
2019-01-14T15:29:53.787Z,4.90
2019-01-14T15:32:23.563Z,4.90
2019-01-14T15:34:53.831Z,4.70
2019-01-14T15:37:23.812Z,4.70
2019-01-14T15:39:54.150Z,4.70
2019-01-14T15:42:23.910Z,4.60
2019-01-14T15:44:53.896Z,4.70
2019-01-14T15:47:23.595Z,4.60
2019-01-14T15:49:53.967Z,4.60
2019-01-14T15:52:23.741Z,4.50
2019-01-14T15:54:53.733Z,4.50
2019-01-14T15:57:24.056Z,4.50
2019-01-14T15:59:54.119Z,4.50
2019-01-14T16:02:24.105Z,4.50
2019-01-14T16:04:53.560Z,4.40
2019-01-14T16:07:24.025Z,4.50
2019-01-14T16:09:54.430Z,4.50
2019-01-14T16:12:24.691Z,4.50
2019-01-14T16:14:55.308Z,4.50
2019-01-14T16:17:25.695Z,4.40
2019-01-14T16:19:55.372Z,4.40
2019-01-14T16:22:25.730Z,4.30
2019-01-14T16:24:55.435Z,4.20
2019-01-14T16:27:25.531Z,4.20
2019-01-14T16:29:54.884Z,4.20
2019-01-14T16:32:24.971Z,4.10
2019-01-14T16:34:55.325Z,4.10
2019-01-14T16:37:25.418Z,4.10
2019-01-14T16:39:55.478Z,4.10
2019-01-14T16:42:25.176Z,4.10
2019-01-14T16:44:55.191Z,4.10
2019-01-14T16:47:25.258Z,4.10
2019-01-14T16:49:54.707Z,4.10
2019-01-14T16:52:24.743Z,4.00
2019-01-14T16:54:54.792Z,3.90
2019-01-14T16:57:24.616Z,4.00
2019-01-14T16:59:54.039Z,3.90
2019-01-14T17:02:24.147Z,3.90
2019-01-14T17:04:53.843Z,3.80
2019-01-14T17:07:23.927Z,3.70
2019-01-14T17:09:54.332Z,3.80
2019-01-14T17:12:24.386Z,3.70
2019-01-14T17:14:54.415Z,3.60
2019-01-14T17:17:23.873Z,3.60
2019-01-14T17:19:53.839Z,3.60
2019-01-14T17:22:23.901Z,3.70
2019-01-14T17:24:53.924Z,3.60
2019-01-14T17:27:24.042Z,3.50
2019-01-14T17:29:54.391Z,3.50
2019-01-14T17:32:24.504Z,3.40
2019-01-14T17:34:54.953Z,3.40
2019-01-14T17:37:25.087Z,3.40
2019-01-14T17:39:54.805Z,3.40
2019-01-14T17:42:25.417Z,3.30
2019-01-14T17:44:56.368Z,3.30
2019-01-14T17:47:26.202Z,3.30
2019-01-14T17:49:56.342Z,3.30
2019-01-14T17:52:26.409Z,3.20
2019-01-14T17:54:56.543Z,3.20
2019-01-14T17:57:26.570Z,3.20
2019-01-14T17:59:57.119Z,3.20
2019-01-14T18:02:27.690Z,3.20
2019-01-14T18:04:58.391Z,3.20
2019-01-14T18:07:28.699Z,3.20
2019-01-14T18:09:58.805Z,3.20
2019-01-14T18:12:29.691Z,3.10
2019-01-14T18:14:59.847Z,3.00
2019-01-14T18:17:30.090Z,2.90
2019-01-14T18:20:00.519Z,2.90
2019-01-14T18:22:30.593Z,2.80
2019-01-14T18:25:01.070Z,2.70
2019-01-14T18:27:31.121Z,2.60
2019-01-14T18:30:01.462Z,2.50
2019-01-14T18:32:31.320Z,2.50
2019-01-14T18:35:01.674Z,2.50
2019-01-14T18:37:31.703Z,2.50
2019-01-14T18:40:01.689Z,2.50
2019-01-14T18:42:31.171Z,2.50
2019-01-14T18:45:00.871Z,2.50
2019-01-14T18:47:30.893Z,2.40
2019-01-14T18:50:00.489Z,2.40
2019-01-14T18:52:31.127Z,2.40
2019-01-14T18:55:01.083Z,2.40
2019-01-14T18:57:31.688Z,2.30
2019-01-14T19:00:02.201Z,2.30
2019-01-14T19:02:32.547Z,2.30
2019-01-14T19:05:02.590Z,2.20
2019-01-14T19:07:32.259Z,2.20
2019-01-14T19:10:02.864Z,2.30
2019-01-14T19:12:33.296Z,2.30
2019-01-14T19:15:04.005Z,2.40
2019-01-14T19:17:34.525Z,2.40
2019-01-14T19:20:04.885Z,2.40
2019-01-14T19:22:35.680Z,2.40
2019-01-14T19:25:06.488Z,2.40
2019-01-14T19:27:36.770Z,2.50
2019-01-14T19:30:09.946Z,2.50
2019-01-14T19:32:40.513Z,2.50
2019-01-14T19:35:10.484Z,2.50
2019-01-14T19:37:40.712Z,2.50
2019-01-14T19:40:13.803Z,2.40
2019-01-14T19:42:44.723Z,2.40
2019-01-14T19:45:15.674Z,2.40
2019-01-14T19:47:46.727Z,2.40
2019-01-14T19:50:26.063Z,2.40
2019-01-14T19:52:57.378Z,2.40
2019-01-14T19:55:27.683Z,2.50
2019-01-14T19:57:57.875Z,2.40
2019-01-14T20:00:32.392Z,2.40
2019-01-14T20:03:03.262Z,2.30
2019-01-14T20:05:34.374Z,2.40
2019-01-14T20:08:05.185Z,2.40
2019-01-14T20:10:36.314Z,2.40
2019-01-14T20:13:07.216Z,2.50
2019-01-14T20:15:38.389Z,2.50
2019-01-14T20:18:09.052Z,2.60
2019-01-14T20:20:40.002Z,2.60
2019-01-14T20:23:10.601Z,2.60
2019-01-14T20:25:41.057Z,2.60
2019-01-14T20:28:12.188Z,2.60
2019-01-14T20:30:43.076Z,2.60
2019-01-14T20:33:13.714Z,2.60
2019-01-14T20:35:45.493Z,2.70
2019-01-14T20:38:16.369Z,2.70
2019-01-14T20:40:47.226Z,2.80
2019-01-14T20:43:16.958Z,2.80
2019-01-14T20:45:47.564Z,2.90
2019-01-14T20:48:17.192Z,2.90
2019-01-14T20:50:48.851Z,2.90
2019-01-14T20:53:19.377Z,2.90
2019-01-14T20:55:50.098Z,2.90
2019-01-14T20:58:20.835Z,2.90
2019-01-14T21:00:51.615Z,2.90
2019-01-14T21:03:21.511Z,2.90
2019-01-14T21:05:51.864Z,2.90
2019-01-14T21:08:22.162Z,2.80
2019-01-14T21:10:52.674Z,2.80
2019-01-14T21:13:22.903Z,2.80
2019-01-14T21:15:53.288Z,2.70
2019-01-14T21:18:23.559Z,2.80
2019-01-14T21:20:53.789Z,2.70
2019-01-14T21:23:24.161Z,2.60
2019-01-14T21:25:54.741Z,2.70
2019-01-14T21:28:25.264Z,2.60
2019-01-14T21:30:55.601Z,2.70
2019-01-14T21:33:26.121Z,2.70
2019-01-14T21:35:56.544Z,2.70
2019-01-14T21:38:27.065Z,2.60
2019-01-14T21:40:57.495Z,2.60
2019-01-14T21:43:28.417Z,2.50
2019-01-14T21:45:58.617Z,2.50
2019-01-14T21:48:28.872Z,2.50
2019-01-14T21:50:58.764Z,2.40
2019-01-14T21:53:28.338Z,2.30
2019-01-14T21:55:58.031Z,2.30
2019-01-14T21:58:28.418Z,2.30
2019-01-14T22:00:58.155Z,2.20
2019-01-14T22:03:28.503Z,2.20
2019-01-14T22:05:58.911Z,2.30
2019-01-14T22:08:28.662Z,2.30
2019-01-14T22:10:58.995Z,2.30
2019-01-14T22:13:29.361Z,2.40
2019-01-14T22:15:59.358Z,2.40
2019-01-14T22:18:29.041Z,2.50
2019-01-14T22:20:59.367Z,2.50
2019-01-14T22:23:29.472Z,2.50
2019-01-14T22:25:59.531Z,2.60
2019-01-14T22:28:29.843Z,2.60
2019-01-14T22:30:59.690Z,2.60
2019-01-14T22:33:29.511Z,2.60
2019-01-14T22:35:59.219Z,2.70
2019-01-14T22:38:29.521Z,2.70
2019-01-14T22:40:59.900Z,2.70
2019-01-14T22:43:29.278Z,2.80
2019-01-14T22:45:59.253Z,2.80
2019-01-14T22:48:29.363Z,2.80
2019-01-14T22:50:59.144Z,2.90
2019-01-14T22:53:29.470Z,2.90
2019-01-14T22:55:59.496Z,3.00
2019-01-14T22:58:29.504Z,3.00
2019-01-14T23:01:19.332Z,3.00
2019-01-14T23:03:50.632Z,3.10
2019-01-14T23:06:21.039Z,3.10
2019-01-14T23:08:51.099Z,3.10
2019-01-14T23:11:21.068Z,3.20
2019-01-14T23:13:50.791Z,3.30
2019-01-14T23:16:20.888Z,3.40
2019-01-14T23:18:51.051Z,3.30
2019-01-14T23:21:21.052Z,3.30
2019-01-14T23:23:51.347Z,3.30
2019-01-14T23:26:21.289Z,3.30
2019-01-14T23:28:51.773Z,3.30
2019-01-14T23:31:21.856Z,3.30
2019-01-14T23:33:51.803Z,3.40
2019-01-14T23:36:21.819Z,3.30
2019-01-14T23:38:51.831Z,3.30
2019-01-14T23:41:21.828Z,3.30
2019-01-14T23:43:51.940Z,3.30
2019-01-14T23:46:22.304Z,3.30
2019-01-14T23:48:52.614Z,3.30
2019-01-14T23:51:22.729Z,3.30
2019-01-14T23:53:52.699Z,3.30
2019-01-14T23:56:22.655Z,3.30
2019-01-14T23:58:52.670Z,3.20
